createdAt,value
2018-11-28T00:00:30.302Z,16.13
2018-11-28T00:02:59.890Z,17.47
2018-11-28T00:05:28.558Z,19.57
2018-11-28T00:07:57.252Z,13.97
2018-11-28T00:10:25.949Z,17.00
2018-11-28T00:12:54.659Z,13.43
2018-11-28T00:15:23.360Z,7.00
2018-11-28T00:17:52.078Z,15.73
2018-11-28T00:20:21.828Z,18.13
2018-11-28T00:22:50.509Z,16.27
2018-11-28T00:25:20.250Z,9.50
2018-11-28T00:27:48.990Z,13.50
2018-11-28T00:30:20.250Z,16.73
2018-11-28T00:32:49.562Z,11.43
2018-11-28T00:35:20.124Z,9.97
2018-11-28T00:37:48.997Z,13.53
2018-11-28T00:40:19.064Z,6.70
2018-11-28T00:42:47.821Z,11.67
2018-11-28T00:45:19.159Z,12.83
2018-11-28T00:47:47.872Z,11.50
2018-11-28T00:50:21.554Z,15.13
2018-11-28T00:52:50.310Z,11.90
2018-11-28T00:55:19.121Z,9.33
2018-11-28T00:57:47.803Z,6.87
2018-11-28T01:00:18.581Z,10.73
2018-11-28T01:02:47.519Z,8.37
2018-11-28T01:05:16.346Z,8.87
2018-11-28T01:07:45.564Z,6.23
2018-11-28T01:10:15.999Z,8.57
2018-11-28T01:12:44.732Z,6.50
2018-11-28T01:15:15.399Z,3.53
2018-11-28T01:17:44.151Z,6.83
2018-11-28T01:20:13.741Z,7.83
2018-11-28T01:22:42.562Z,7.03
2018-11-28T01:25:12.143Z,5.20
2018-11-28T01:27:40.847Z,5.37
2018-11-28T01:30:13.506Z,9.40
2018-11-28T01:32:42.213Z,7.20
2018-11-28T01:35:13.772Z,5.93
2018-11-28T01:37:42.646Z,3.10
2018-11-28T01:40:14.344Z,3.73
2018-11-28T01:42:43.049Z,11.30
2018-11-28T01:45:13.094Z,3.07
2018-11-28T01:47:41.963Z,5.40
2018-11-28T01:50:11.738Z,5.23
2018-11-28T01:52:40.417Z,5.47
2018-11-28T01:55:10.373Z,2.40
2018-11-28T01:57:39.068Z,6.20
2018-11-28T02:00:13.326Z,3.13
2018-11-28T02:02:42.035Z,1.53
2018-11-28T02:05:11.547Z,4.57
2018-11-28T02:07:40.226Z,3.80
2018-11-28T02:10:13.215Z,3.97
2018-11-28T02:12:41.947Z,2.60
2018-11-28T02:15:11.990Z,3.17
2018-11-28T02:17:40.646Z,1.93
2018-11-28T02:20:12.337Z,2.83
2018-11-28T02:22:41.018Z,2.50
2018-11-28T02:25:11.718Z,4.83
2018-11-28T02:27:40.412Z,4.83
2018-11-28T02:30:15.685Z,2.10
2018-11-28T02:32:44.666Z,4.53
2018-11-28T02:35:14.056Z,1.20
2018-11-28T02:37:42.771Z,1.43
2018-11-28T02:40:13.146Z,3.30
2018-11-28T02:42:41.844Z,2.90
2018-11-28T02:45:12.736Z,2.10
2018-11-28T02:47:41.417Z,3.07
2018-11-28T02:50:10.165Z,2.83
2018-11-28T02:52:38.845Z,3.93
2018-11-28T02:55:11.498Z,3.47
2018-11-28T02:57:40.536Z,1.83
2018-11-28T03:00:16.580Z,2.70
2018-11-28T03:02:45.314Z,3.67
2018-11-28T03:05:14.279Z,1.40
2018-11-28T03:07:42.986Z,1.90
2018-11-28T03:10:17.333Z,1.93
2018-11-28T03:12:46.056Z,1.77
2018-11-28T03:15:18.024Z,2.47
2018-11-28T03:17:46.696Z,2.37
2018-11-28T03:20:15.354Z,3.07
2018-11-28T03:22:44.052Z,3.23
2018-11-28T03:25:12.782Z,3.03
2018-11-28T03:27:41.429Z,2.20
2018-11-28T03:30:14.338Z,5.03
2018-11-28T03:32:43.042Z,2.57
2018-11-28T03:35:13.727Z,1.90
2018-11-28T03:37:42.423Z,2.13
2018-11-28T03:40:11.292Z,3.03
2018-11-28T03:42:40.078Z,3.33
2018-11-28T03:45:13.259Z,3.37
2018-11-28T03:47:42.463Z,4.20
2018-11-28T03:50:12.055Z,2.33
2018-11-28T03:52:40.831Z,3.33
2018-11-28T03:55:14.366Z,6.80
2018-11-28T03:57:43.714Z,3.47
2018-11-28T04:00:16.216Z,4.17
2018-11-28T04:02:44.939Z,3.00
2018-11-28T04:05:13.840Z,6.67
2018-11-28T04:07:42.534Z,2.83
2018-11-28T04:10:13.117Z,4.80
2018-11-28T04:12:42.298Z,5.87
2018-11-28T04:15:16.010Z,4.67
2018-11-28T04:17:44.710Z,5.53
2018-11-28T04:20:18.371Z,4.80
2018-11-28T04:22:47.111Z,6.03
2018-11-28T04:25:16.618Z,6.73
2018-11-28T04:27:45.311Z,7.40
2018-11-28T04:30:15.208Z,5.47
2018-11-28T04:32:43.891Z,11.87
2018-11-28T04:35:13.334Z,8.43
2018-11-28T04:37:42.299Z,10.57
2018-11-28T04:40:12.952Z,11.73
2018-11-28T04:42:41.690Z,13.50
2018-11-28T04:45:12.654Z,11.00
2018-11-28T04:47:41.356Z,14.47
2018-11-28T04:50:10.950Z,15.10
2018-11-28T04:52:39.754Z,11.47
2018-11-28T04:55:15.325Z,15.97
2018-11-28T04:57:44.183Z,10.53
2018-11-28T05:00:16.618Z,8.20
2018-11-28T05:02:45.330Z,10.37
2018-11-28T05:05:14.013Z,18.07
2018-11-28T05:07:43.582Z,14.30
2018-11-28T05:10:14.179Z,22.43
2018-11-28T05:12:42.907Z,26.63
2018-11-28T05:15:13.502Z,18.20
2018-11-28T05:17:42.311Z,26.93
2018-11-28T05:20:13.066Z,18.57
2018-11-28T05:22:41.774Z,28.00
2018-11-28T05:25:28.739Z,20.93
2018-11-28T05:27:58.294Z,27.90
2018-11-28T05:30:30.695Z,25.03
2018-11-28T05:32:59.607Z,30.77
2018-11-28T05:35:34.285Z,30.23
2018-11-28T05:38:05.762Z,32.30
2018-11-28T05:40:34.433Z,37.20
2018-11-28T05:43:03.101Z,36.53
2018-11-28T05:45:31.773Z,31.77
2018-11-28T05:48:00.470Z,46.40
2018-11-28T05:50:29.207Z,33.10
2018-11-28T05:52:57.931Z,36.93
2018-11-28T05:55:26.598Z,37.47
2018-11-28T05:57:55.271Z,42.90
2018-11-28T06:00:27.194Z,49.80
2018-11-28T06:02:55.901Z,49.00
2018-11-28T06:05:24.617Z,62.10
2018-11-28T06:07:53.287Z,57.60
2018-11-28T06:10:22.037Z,54.97
2018-11-28T06:12:50.704Z,44.20
2018-11-28T06:15:19.368Z,53.97
2018-11-28T06:17:48.061Z,48.13
2018-11-28T06:20:16.889Z,49.97
2018-11-28T06:22:45.588Z,47.60
2018-11-28T06:25:16.125Z,53.87
2018-11-28T06:27:44.039Z,38.57
2018-11-28T06:30:14.930Z,30.67
2018-11-28T06:32:43.678Z,37.33
2018-11-28T06:35:12.640Z,39.33
2018-11-28T06:37:41.552Z,30.77
2018-11-28T06:40:14.826Z,30.77
2018-11-28T06:42:43.985Z,24.30
2018-11-28T06:45:13.696Z,29.87
2018-11-28T06:47:42.411Z,23.07
2018-11-28T06:50:14.066Z,28.07
2018-11-28T06:52:43.142Z,27.30
2018-11-28T06:55:13.143Z,27.43
2018-11-28T06:57:41.844Z,30.70
2018-11-28T07:00:16.182Z,25.27
2018-11-28T07:02:44.946Z,41.53
2018-11-28T07:05:13.785Z,36.20
2018-11-28T07:07:42.586Z,42.57
2018-11-28T07:10:13.338Z,37.90
2018-11-28T07:12:42.040Z,38.57
2018-11-28T07:15:14.454Z,33.27
2018-11-28T07:17:43.503Z,36.13
2018-11-28T07:20:13.185Z,29.40
2018-11-28T07:22:41.903Z,44.20
2018-11-28T07:25:11.741Z,26.87
2018-11-28T07:27:45.062Z,27.63
2018-11-28T07:30:12.946Z,33.27
2018-11-28T07:32:41.641Z,27.70
2018-11-28T07:35:10.950Z,25.10
2018-11-28T07:37:39.702Z,32.07
2018-11-28T07:40:13.934Z,29.17
2018-11-28T07:42:44.181Z,24.80
2018-11-28T07:45:13.229Z,23.53
2018-11-28T07:47:41.959Z,29.17
2018-11-28T07:50:11.115Z,24.33
2018-11-28T07:52:39.953Z,17.57
2018-11-28T07:55:10.995Z,22.70
2018-11-28T07:57:40.362Z,24.87
2018-11-28T08:00:12.988Z,25.70
2018-11-28T08:02:42.150Z,26.77
2018-11-28T08:05:11.651Z,19.60
2018-11-28T08:07:40.508Z,21.57
2018-11-28T08:10:11.063Z,21.27
2018-11-28T08:12:39.868Z,18.53
2018-11-28T08:15:09.146Z,17.77
2018-11-28T08:17:37.866Z,19.23
2018-11-28T08:20:06.989Z,19.70
2018-11-28T08:22:36.263Z,22.00
2018-11-28T08:25:04.898Z,26.97
2018-11-28T08:27:33.504Z,23.27
2018-11-28T08:30:02.441Z,20.80
2018-11-28T08:32:31.680Z,22.77
2018-11-28T08:35:00.507Z,29.90
2018-11-28T08:37:29.287Z,20.20
2018-11-28T08:39:58.109Z,20.70
2018-11-28T08:42:26.870Z,22.27
2018-11-28T08:44:55.710Z,28.43
2018-11-28T08:47:24.447Z,24.97
2018-11-28T08:49:54.108Z,23.73
2018-11-28T08:52:22.943Z,25.50
2018-11-28T08:54:51.776Z,27.17
2018-11-28T08:57:20.540Z,22.63
2018-11-28T08:59:49.690Z,32.50
2018-11-28T09:02:18.466Z,30.93
2018-11-28T09:04:47.706Z,31.87
2018-11-28T09:07:16.494Z,34.67
2018-11-28T09:09:45.204Z,33.03
2018-11-28T09:12:14.020Z,34.63
2018-11-28T09:14:42.774Z,34.07
2018-11-28T09:17:15.153Z,35.03
2018-11-28T09:19:40.434Z,27.87
2018-11-28T09:22:09.197Z,31.20
2018-11-28T09:24:37.867Z,35.43
2018-11-28T09:27:06.641Z,31.20
2018-11-28T09:29:35.344Z,26.47
2018-11-28T09:32:04.049Z,28.00
2018-11-28T09:34:32.735Z,26.63
2018-11-28T09:37:01.433Z,24.60
2018-11-28T09:39:30.098Z,20.10
2018-11-28T09:41:58.782Z,25.37
2018-11-28T09:44:27.492Z,20.57
2018-11-28T09:46:56.222Z,25.63
2018-11-28T09:49:24.903Z,27.03
2018-11-28T09:51:53.571Z,21.83
2018-11-28T09:54:22.249Z,22.23
2018-11-28T09:56:50.930Z,24.73
2018-11-28T09:59:19.596Z,28.47
2018-11-28T10:01:48.270Z,27.60
2018-11-28T10:04:16.939Z,24.33
2018-11-28T10:06:45.672Z,27.37
2018-11-28T10:09:14.383Z,17.90
2018-11-28T10:11:43.078Z,20.23
2018-11-28T10:14:11.758Z,15.80
2018-11-28T10:16:40.577Z,16.67
2018-11-28T10:19:09.199Z,20.13
2018-11-28T10:21:37.861Z,21.03
2018-11-28T10:24:07.026Z,23.00
2018-11-28T10:26:35.714Z,20.57
2018-11-28T10:29:04.443Z,18.80
2018-11-28T10:31:33.164Z,24.07
2018-11-28T10:34:01.878Z,23.17
2018-11-28T10:36:30.613Z,25.43
2018-11-28T10:38:59.286Z,23.43
2018-11-28T10:41:27.950Z,31.40
2018-11-28T10:43:56.638Z,28.47
2018-11-28T10:46:25.350Z,36.03
2018-11-28T10:48:54.042Z,30.70
2018-11-28T10:51:22.734Z,29.67
2018-11-28T10:53:51.423Z,26.67
2018-11-28T10:56:20.122Z,26.40
2018-11-28T10:58:48.819Z,24.03
2018-11-28T11:01:22.498Z,26.03
2018-11-28T11:03:56.127Z,20.73
2018-11-28T11:06:29.852Z,21.27
2018-11-28T11:09:03.783Z,25.93
2018-11-28T11:11:37.696Z,17.57
2018-11-28T11:14:11.436Z,20.50
2018-11-28T11:16:40.166Z,24.07
2018-11-28T11:19:08.946Z,19.83
2018-11-28T11:21:37.644Z,21.33
2018-11-28T11:24:06.552Z,23.60
2018-11-28T11:26:35.311Z,21.77
2018-11-28T11:29:04.046Z,18.00
2018-11-28T11:31:32.727Z,15.07
2018-11-28T11:34:01.446Z,15.30
2018-11-28T11:36:30.155Z,15.57
2018-11-28T11:38:58.852Z,13.57
2018-11-28T11:41:27.560Z,13.97
2018-11-28T11:43:56.265Z,11.33
2018-11-28T11:46:24.974Z,13.70
2018-11-28T11:48:53.757Z,12.30
2018-11-28T11:51:22.504Z,17.00
2018-11-28T11:53:51.191Z,4.70
2018-11-28T11:56:19.898Z,10.47
2018-11-28T11:58:48.560Z,6.87
2018-11-28T12:01:17.375Z,10.27
2018-11-28T12:03:46.029Z,4.93
2018-11-28T12:06:14.733Z,6.77
2018-11-28T12:08:43.411Z,6.80
2018-11-28T12:11:12.138Z,5.87
2018-11-28T12:13:40.822Z,4.73
2018-11-28T12:16:09.541Z,3.70
2018-11-28T12:18:38.282Z,8.07
2018-11-28T12:21:07.724Z,6.77
2018-11-28T12:23:36.671Z,7.13
2018-11-28T12:26:05.454Z,11.13
2018-11-28T12:28:34.185Z,13.43
2018-11-28T12:31:02.922Z,22.63
2018-11-28T12:33:31.587Z,17.33
2018-11-28T12:36:00.294Z,20.17
2018-11-28T12:38:28.974Z,20.97
2018-11-28T12:40:58.358Z,24.47
2018-11-28T12:43:27.074Z,33.47
2018-11-28T12:45:55.795Z,41.43
2018-11-28T12:48:24.518Z,31.50
2018-11-28T12:50:53.200Z,40.03
2018-11-28T12:53:21.909Z,37.27
2018-11-28T12:55:50.606Z,30.37
2018-11-28T12:58:21.240Z,42.60
2018-11-28T13:00:49.951Z,36.83
2018-11-28T13:03:19.333Z,36.27
2018-11-28T13:05:48.090Z,44.93
2018-11-28T13:08:16.824Z,38.67
2018-11-28T13:10:45.558Z,30.50
2018-11-28T13:13:14.283Z,24.57
2018-11-28T13:15:42.972Z,31.20
2018-11-28T13:18:11.959Z,47.43
2018-11-28T13:20:41.739Z,46.90
2018-11-28T13:23:11.519Z,35.20
2018-11-28T13:25:40.273Z,38.93
2018-11-28T13:28:09.106Z,36.43
2018-11-28T13:30:38.271Z,35.50
2018-11-28T13:33:07.653Z,27.40
2018-11-28T13:35:36.394Z,28.70
2018-11-28T13:38:07.598Z,44.37
2018-11-28T13:40:36.311Z,36.77
2018-11-28T13:43:05.073Z,28.70
2018-11-28T13:45:35.834Z,37.47
2018-11-28T13:48:04.593Z,32.70
2018-11-28T13:50:33.310Z,40.10
2018-11-28T13:53:03.981Z,31.67
2018-11-28T13:55:38.629Z,36.23
2018-11-28T13:58:02.749Z,38.87
2018-11-28T14:00:31.534Z,41.07
2018-11-28T14:03:00.231Z,32.37
2018-11-28T14:05:28.980Z,40.33
2018-11-28T14:07:57.753Z,45.53
2018-11-28T14:10:26.514Z,40.03
2018-11-28T14:12:55.220Z,48.13
2018-11-28T14:15:24.249Z,45.50
2018-11-28T14:17:55.984Z,60.63
2018-11-28T14:20:24.768Z,46.83
2018-11-28T14:22:53.517Z,42.20
2018-11-28T14:25:22.311Z,41.43
2018-11-28T14:27:51.094Z,50.17
2018-11-28T14:30:21.588Z,49.67
2018-11-28T14:32:50.801Z,36.03
2018-11-28T14:35:19.831Z,36.93
2018-11-28T14:37:48.618Z,46.77
2018-11-28T14:40:20.083Z,58.07
2018-11-28T14:42:50.194Z,48.93
2018-11-28T14:45:19.514Z,53.13
2018-11-28T14:47:48.979Z,47.07
2018-11-28T14:50:22.456Z,57.13
2018-11-28T14:52:51.401Z,33.10
2018-11-28T14:55:22.266Z,41.93
2018-11-28T14:57:51.023Z,34.60
2018-11-28T15:00:22.713Z,38.40
2018-11-28T15:02:55.641Z,53.10
2018-11-28T15:06:35.840Z,48.80
2018-11-28T15:09:11.626Z,33.43
2018-11-28T15:11:41.055Z,45.00
2018-11-28T15:14:09.152Z,37.83
2018-11-28T15:16:37.876Z,49.37
2018-11-28T15:19:06.623Z,35.53
2018-11-28T15:21:35.349Z,35.87
2018-11-28T15:24:04.122Z,52.57
2018-11-28T15:26:32.814Z,56.33
2018-11-28T15:29:01.566Z,60.03
2018-11-28T15:31:30.301Z,45.83
2018-11-28T15:33:59.023Z,43.10
2018-11-28T15:36:27.728Z,41.30
2018-11-28T15:38:56.411Z,54.67
2018-11-28T15:41:25.124Z,50.07
2018-11-28T15:43:53.902Z,51.37
2018-11-28T15:46:22.614Z,60.47
2018-11-28T15:48:51.307Z,48.03
2018-11-28T15:51:20.034Z,41.53
2018-11-28T15:53:48.758Z,39.27
2018-11-28T15:56:17.538Z,54.07
2018-11-28T15:58:46.290Z,39.37
2018-11-28T16:01:15.192Z,45.23
2018-11-28T16:03:43.926Z,62.07
2018-11-28T16:06:12.663Z,59.00
2018-11-28T16:08:41.456Z,68.67
2018-11-28T16:11:13.457Z,50.90
2018-11-28T16:13:42.132Z,41.37
2018-11-28T16:16:10.853Z,51.87
2018-11-28T16:18:39.534Z,60.40
2018-11-28T16:21:08.332Z,59.67
2018-11-28T16:23:37.082Z,51.23
2018-11-28T16:26:06.359Z,68.73
2018-11-28T16:28:35.530Z,52.67
2018-11-28T16:31:04.282Z,58.43
2018-11-28T16:33:33.080Z,73.93
2018-11-28T16:36:02.151Z,62.57
2018-11-28T16:38:30.907Z,62.83
2018-11-28T16:40:59.613Z,58.57
2018-11-28T16:43:28.316Z,66.57
2018-11-28T16:45:57.015Z,44.47
2018-11-28T16:48:25.705Z,61.13
2018-11-28T16:50:54.433Z,42.17
2018-11-28T16:53:23.144Z,66.07
2018-11-28T16:55:51.854Z,72.33
2018-11-28T16:58:20.587Z,51.77
2018-11-28T17:00:49.301Z,73.17
2018-11-28T17:03:18.067Z,71.73
2018-11-28T17:05:46.798Z,63.30
2018-11-28T17:08:15.489Z,75.17
2018-11-28T17:10:44.178Z,53.90
2018-11-28T17:13:12.850Z,54.63
2018-11-28T17:15:41.584Z,55.47
2018-11-28T17:18:10.271Z,62.00
2018-11-28T17:20:41.599Z,61.80
2018-11-28T17:23:10.342Z,45.43
2018-11-28T17:25:39.069Z,43.77
2018-11-28T17:28:07.779Z,60.03
2018-11-28T17:30:36.958Z,65.10
2018-11-28T17:33:06.433Z,53.67
2018-11-28T17:35:35.178Z,53.17
2018-11-28T17:38:03.919Z,58.77
2018-11-28T17:40:32.606Z,50.53
2018-11-28T17:43:01.322Z,55.27
2018-11-28T17:45:30.368Z,43.87
2018-11-28T17:47:59.128Z,56.90
2018-11-28T17:50:28.087Z,45.33
2018-11-28T17:53:12.548Z,56.57
2018-11-28T17:55:45.034Z,43.70
2018-11-28T17:58:13.808Z,55.33
2018-11-28T18:00:42.588Z,63.30
2018-11-28T18:03:11.341Z,40.70
2018-11-28T18:05:40.154Z,53.63
2018-11-28T18:08:09.060Z,44.43
2018-11-28T18:10:37.818Z,40.63
2018-11-28T18:13:08.145Z,44.17
2018-11-28T18:15:37.028Z,34.43
2018-11-28T18:18:07.302Z,106.53
2018-11-28T18:20:36.033Z,76.93
2018-11-28T18:23:07.028Z,61.03
2018-11-28T18:25:35.859Z,69.10
2018-11-28T18:28:04.785Z,66.17
2018-11-28T18:30:33.531Z,65.60
2018-11-28T18:33:02.339Z,41.37
2018-11-28T18:35:31.163Z,51.03
2018-11-28T18:37:59.938Z,47.97
2018-11-28T18:40:28.675Z,55.20
2018-11-28T18:42:57.426Z,54.93
2018-11-28T18:45:27.505Z,57.93
2018-11-28T18:47:56.247Z,50.50
2018-11-28T18:50:25.139Z,53.90
2018-11-28T18:52:53.938Z,60.50
2018-11-28T18:55:22.782Z,51.90
2018-11-28T18:57:53.042Z,77.97
2018-11-28T19:00:24.462Z,65.63
2018-11-28T19:02:53.588Z,59.23
2018-11-28T19:05:22.325Z,59.07
2018-11-28T19:07:51.094Z,78.53
2018-11-28T19:10:26.071Z,51.13
2018-11-28T19:12:49.609Z,68.67
2018-11-28T19:15:22.096Z,71.27
2018-11-28T19:17:50.938Z,66.07
2018-11-28T19:20:20.620Z,56.43
2018-11-28T19:22:49.763Z,40.57
2018-11-28T19:25:19.612Z,56.27
2018-11-28T19:27:48.415Z,42.47
2018-11-28T19:30:21.391Z,49.70
2018-11-28T19:32:50.178Z,54.63
2018-11-28T19:35:18.909Z,57.77
2018-11-28T19:37:47.715Z,43.27
2018-11-28T19:40:25.919Z,40.60
2018-11-28T19:42:54.638Z,45.20
2018-11-28T19:45:23.508Z,44.57
2018-11-28T19:47:52.240Z,44.40
2018-11-28T19:50:26.491Z,47.37
2018-11-28T19:52:55.173Z,53.77
2018-11-28T19:55:23.966Z,41.17
2018-11-28T19:57:53.585Z,52.70
2018-11-28T20:00:22.343Z,52.67
2018-11-28T20:02:51.270Z,50.37
2018-11-28T20:05:20.110Z,48.60
2018-11-28T20:07:49.815Z,58.20
2018-11-28T20:10:21.455Z,58.27
2018-11-28T20:12:50.420Z,52.23
2018-11-28T20:15:21.506Z,64.97
2018-11-28T20:17:50.473Z,47.73
2018-11-28T20:20:19.271Z,36.70
2018-11-28T20:22:48.031Z,52.10
2018-11-28T20:25:17.797Z,36.90
2018-11-28T20:27:48.851Z,53.27
2018-11-28T20:30:23.291Z,48.00
2018-11-28T20:32:51.998Z,50.30
2018-11-28T20:35:20.684Z,56.20
2018-11-28T20:37:49.414Z,67.90
2018-11-28T20:40:18.714Z,61.83
2018-11-28T20:42:48.639Z,48.87
2018-11-28T20:45:17.463Z,63.17
2018-11-28T20:47:46.267Z,72.23
2018-11-28T20:50:18.267Z,60.07
2018-11-28T20:52:48.503Z,74.23
2018-11-28T20:55:17.326Z,85.53
2018-11-28T20:57:46.110Z,74.90
2018-11-28T21:00:17.093Z,61.47
2018-11-28T21:02:45.835Z,63.33
2018-11-28T21:05:14.634Z,56.07
2018-11-28T21:07:43.417Z,52.13
2018-11-28T21:10:19.175Z,47.40
2018-11-28T21:12:47.967Z,54.07
2018-11-28T21:15:17.526Z,50.00
2018-11-28T21:17:46.706Z,47.73
2018-11-28T21:20:16.439Z,44.20
2018-11-28T21:22:48.432Z,53.37
2018-11-28T21:25:17.172Z,48.40
2018-11-28T21:27:45.928Z,54.37
2018-11-28T21:30:16.486Z,46.67
2018-11-28T21:32:45.377Z,37.70
2018-11-28T21:35:18.397Z,47.37
2018-11-28T21:37:47.155Z,37.63
2018-11-28T21:40:15.899Z,39.80
2018-11-28T21:42:44.693Z,41.57
2018-11-28T21:45:14.574Z,37.70
2018-11-28T21:47:43.571Z,30.03
2018-11-28T21:50:18.035Z,37.03
2018-11-28T21:52:46.836Z,33.53
2018-11-28T21:55:19.413Z,27.13
2018-11-28T21:57:48.228Z,35.17
2018-11-28T22:00:22.020Z,27.73
2018-11-28T22:02:50.731Z,27.20
2018-11-28T22:05:19.464Z,33.70
2018-11-28T22:07:48.255Z,25.57
2018-11-28T22:10:25.226Z,32.53
2018-11-28T22:12:54.699Z,31.27
2018-11-28T22:15:23.457Z,23.67
2018-11-28T22:17:55.899Z,23.43
2018-11-28T22:20:25.271Z,27.60
2018-11-28T22:22:54.201Z,28.50
2018-11-28T22:25:24.917Z,24.67
2018-11-28T22:27:53.734Z,18.17
2018-11-28T22:30:26.302Z,22.57
2018-11-28T22:32:55.095Z,27.30
2018-11-28T22:35:23.835Z,21.97
2018-11-28T22:37:53.252Z,23.77
2018-11-28T22:40:24.730Z,21.53
2018-11-28T22:42:53.421Z,21.30
2018-11-28T22:45:23.193Z,24.67
2018-11-28T22:47:51.906Z,23.63
2018-11-28T22:50:20.692Z,22.87
2018-11-28T22:52:49.414Z,18.00
2018-11-28T22:55:18.482Z,23.00
2018-11-28T22:57:47.162Z,22.43
2018-11-28T23:00:16.866Z,22.57
2018-11-28T23:02:53.635Z,16.43
2018-11-28T23:05:26.632Z,26.30
2018-11-28T23:07:56.833Z,20.93
2018-11-28T23:10:25.626Z,23.23
2018-11-28T23:12:54.431Z,24.03
2018-11-28T23:15:23.203Z,23.47
2018-11-28T23:17:55.158Z,23.67
2018-11-28T23:20:20.713Z,20.53
2018-11-28T23:22:49.410Z,22.53
2018-11-28T23:25:18.104Z,25.10
2018-11-28T23:27:46.837Z,20.73
2018-11-28T23:30:17.386Z,16.07
2018-11-28T23:32:46.635Z,30.57
2018-11-28T23:35:15.411Z,19.43
2018-11-28T23:37:45.165Z,33.30
2018-11-28T23:40:16.551Z,22.83
2018-11-28T23:42:45.276Z,28.73
2018-11-28T23:45:14.548Z,37.33
2018-11-28T23:47:43.324Z,29.87
2018-11-28T23:50:15.721Z,32.17
2018-11-28T23:52:44.686Z,39.47
2018-11-28T23:55:29.976Z,35.87
2018-11-28T23:57:58.732Z,31.93
